Portada
METAR-TAF:

METAR-TAF

Aeroports :

Buriram, Tailàndia

latitud: 15-13-46N, longitud: 103-15-04E, altitud: 180 m

Observació

L'informe es va fer fa 41 minuts, a les 00:00 UTC
Vent 2 kt amb direcció variable
Temperatura 27°C
Humitat 79%
Pressió 1012 hPa
Visibilitat: 5000 m
boirina

METAR: VTUO 040000Z VRB02KT 5000 BR NSC 27/23 Q1012 NOSIG

Hora: 07:41 (00:41 UTC)

Pronòstic

L'informe es va fer fa 1 hora i 41 minuts, a les 23:00 UTC
Pronòstic vàlid del 04 a les 00 UTC al 04 a les 24 UTC
Vent 5 kt del Est
Visibilitat: 8000 m
Escasses núvols a una alçada de 3000 ft
Temporalment
l' 04 a les 09 UTC al 04 a les 12 UTC
Vent 15 kt amb direcció variable
Visibilitat: 5000 m
Escasses núvols a una alçada de 1800 ft, Cumulonimbus.
Cel ennuvolat a una alçada de 2500 ft
tempesta, pluja

TAF: VTUO 032300Z 0400/0424 09005KT 8000 FEW030 TEMPO 0409/0412 VRB15KT 5000 TSRA FEW018CB BKN025

Observacions i pronòstics meteorològics de més de 4000 aeroports (METAR i TAF).

Les estacions disponibles són els punts grocs i vermells al mapa.

Posi el ratolí al punt desitjat per veure el nom de l'estació.

Feu clic per veure les observacions i els pronòstics meteorològics.

Per canviar el mapa: feu clic els botons verds amb una creu de color negre per apropar; al botó verd amb un guió per allunyar la imatge; o en les fletxes verdes per a mapes adjacents.


METAR-TAF: